KDLH

Duluth International Airport

Duluth, Minnesota, USA
KDLH 212339Z 2200/2224 16009KT P6SM -SN BKN050 OVC070 FM220400 14007KT 1/2SM SN OVC040 FM221200 VRB04KT 1 1/2SM -SN OVC020 FM222100 32006KT P6SM OVC015 FM222300 33006KT P6SM OVC040
Issued Valid From Valid To
Jan-21 @ 23:39 UTC
(33 minutes ago)
Jan-22 @ 00:00 UTC
(12 minutes ago)
Jan-23 @ 00:00 UTC
(in 24 hours)
Jan-22 @ 00:00 to Jan-22 @ 04:00
KDLH 212339Z 2200/2224 16009KT P6SM -SN BKN050 OVC070
Wind Visibility Clouds Conditions
160° at 9 knots Greater than 6 miles
  • Broken at 5,000' AGL
  • Overcast at 7,000' AGL
  • Light Snow
From Jan-22 @ 04:00 to Jan-22 @ 12:00
FM220400 14007KT 1/2SM SN OVC040
Wind Visibility Clouds Conditions
140° at 7 knots 1/2 miles
  • Overcast at 4,000' AGL
  • Snow
From Jan-22 @ 12:00 to Jan-22 @ 21:00
FM221200 VRB04KT 1 1/2SM -SN OVC020
Wind Visibility Clouds Conditions
Variable at 4 knots 1 1/2 miles
  • Overcast at 2,000' AGL
  • Light Snow
From Jan-22 @ 21:00 to Jan-22 @ 23:00
FM222100 32006KT P6SM OVC015
Wind Visibility Clouds
320° at 6 knots Greater than 6 miles
  • Overcast at 1,500' AGL
From Jan-22 @ 23:00 to Jan-23 @ 00:00
FM222300 33006KT P6SM OVC040
Wind Visibility Clouds
330° at 6 knots Greater than 6 miles
  • Overcast at 4,000' AGL
KDLH 212339Z 2200/2224 16009KT P6SM -SN BKN050 OVC070 FM220400 14007KT 1/2SM SN OVC040 FM221200 VRB04KT 1 1/2SM -SN OVC020 FM222100 32006KT P6SM OVC015 FM222300 33006KT P6SM OVC040
Issued Jan-21 @ 23:39 UTC
(33 minutes ago)
Valid From Jan-22 @ 00:00 UTC
(12 minutes ago)
Valid To Jan-23 @ 00:00 UTC
(in 24 hours)
Jan-22 @ 00:00 - Jan-22 @ 04:00
Wind Visibility
160° at 9 knots Greater than 6 miles
Clouds
  • Broken at 5,000' AGL
  • Overcast at 7,000' AGL
Conditions
  • Light Snow
From Jan-22 @ 04:00 - Jan-22 @ 12:00
Wind Visibility
140° at 7 knots 1/2 miles
Clouds
  • Overcast at 4,000' AGL
Conditions
  • Snow
From Jan-22 @ 12:00 - Jan-22 @ 21:00
Wind Visibility
Variable at 4 knots 1 1/2 miles
Clouds
  • Overcast at 2,000' AGL
Conditions
  • Light Snow
From Jan-22 @ 21:00 - Jan-22 @ 23:00
Wind Visibility
320° at 6 knots Greater than 6 miles
Clouds
  • Overcast at 1,500' AGL
From Jan-22 @ 23:00 - Jan-23 @ 00:00
Wind Visibility
330° at 6 knots Greater than 6 miles
Clouds
  • Overcast at 4,000' AGL